Time;durP1;ratioP1;P1;durP2;ratioP2;P2;SDS_P1;SDS_P2;PMS_P1;PMS_P2;Temp;Humidity;BMP_temperature;BMP_pressure;BME280_temperature;BME280_humidity;BME280_pressure;Samples;Min_cycle;Max_cycle;Signal;HPM_P1;HPM_P2
2022/08/08 00:02:39;;;;;;;7.30;5.60;;;;;;;26.56;51.32;99516.78;5133017;27;20155;-45
2022/08/08 00:05:50;;;;;;;6.63;5.90;;;;;;;26.57;51.59;99515.66;5132776;27;20034;-45
2022/08/08 00:08:28;;;;;;;6.67;5.67;;;;;;;26.69;50.80;99517.81;5116837;27;20039;-47
2022/08/08 00:11:16;;;;;;;6.65;5.90;;;;;;;26.93;50.22;99514.66;5132400;27;20058;-48
2022/08/08 00:13:59;;;;;;;8.57;6.15;;;;;;;26.50;51.46;99507.94;5132795;27;20041;-44
2022/08/08 00:16:37;;;;;;;8.07;5.75;;;;;;;26.48;51.54;99512.91;5132335;27;20038;-45
2022/08/08 00:19:22;;;;;;;9.45;6.05;;;;;;;26.63;51.04;99521.81;5132308;27;20023;-44
2022/08/08 00:22:15;;;;;;;7.68;6.35;;;;;;;26.96;50.35;99505.03;5132545;27;20023;-45
2022/08/08 00:24:52;;;;;;;8.10;6.20;;;;;;;26.32;52.28;99519.91;5121137;27;20451;-46
2022/08/08 00:27:19;;;;;;;7.00;5.80;;;;;;;26.19;52.68;99516.13;5131649;27;20130;-43
2022/08/08 00:30:02;;;;;;;7.13;6.22;;;;;;;26.27;52.27;99509.13;5131968;27;20072;-45
2022/08/08 00:32:34;;;;;;;7.20;6.40;;;;;;;26.48;52.23;99512.09;5131691;27;20084;-46
2022/08/08 00:35:25;;;;;;;7.32;6.50;;;;;;;26.34;52.19;99504.03;5131899;27;20019;-44
2022/08/08 00:38:18;;;;;;;9.18;6.65;;;;;;;26.06;53.52;99503.41;5103345;27;20039;-45
2022/08/08 00:41:25;;;;;;;9.80;6.82;;;;;;;26.10;53.79;99507.09;5131962;27;20478;-43
2022/08/08 00:44:12;;;;;;;7.43;6.65;;;;;;;26.26;53.03;99508.31;5081324;27;20122;-43
2022/08/08 00:47:05;;;;;;;9.80;7.05;;;;;;;26.36;52.91;99514.63;5131907;27;20419;-44
2022/08/08 00:50:07;;;;;;;9.30;6.90;;;;;;;26.01;53.80;99514.44;5131504;27;20398;-45
2022/08/08 00:52:41;;;;;;;8.75;6.60;;;;;;;25.94;54.21;99515.69;5131799;27;20026;-43
2022/08/08 00:55:23;;;;;;;7.95;6.63;;;;;;;26.04;53.94;99522.00;5132031;27;20023;-44
2022/08/08 00:57:48;;;;;;;8.13;7.03;;;;;;;26.26;53.08;99523.88;5131497;27;20023;-43
2022/08/08 01:00:55;;;;;;;9.00;7.30;;;;;;;26.31;53.19;99534.63;5131287;27;20034;-47
2022/08/08 01:03:52;;;;;;;8.52;6.97;;;;;;;25.61;55.17;99545.09;5130894;27;20126;-44
2022/08/08 01:06:36;;;;;;;11.85;7.85;;;;;;;25.39;56.24;99539.59;5131621;27;20021;-44
2022/08/08 01:09:23;;;;;;;9.35;7.70;;;;;;;25.17;56.88;99541.94;5131412;27;20019;-43
2022/08/08 01:12:03;;;;;;;8.82;7.88;;;;;;;25.03;57.34;99543.06;5131108;27;20455;-43
2022/08/08 01:14:34;;;;;;;14.32;8.23;;;;;;;24.58;58.95;99543.72;5131262;27;20023;-43
2022/08/08 01:17:09;;;;;;;11.27;8.20;;;;;;;24.84;58.14;99537.75;5131380;27;20084;-44
2022/08/08 01:20:12;;;;;;;9.13;7.53;;;;;;;25.02;57.58;99538.72;5131259;27;20088;-44
2022/08/08 01:22:56;;;;;;;9.13;7.47;;;;;;;25.31;56.80;99546.59;5131429;27;20027;-44
2022/08/08 01:25:43;;;;;;;8.75;7.85;;;;;;;24.97;57.83;99547.81;5130765;27;20023;-44
2022/08/08 01:28:31;;;;;;;11.73;7.80;;;;;;;24.85;58.03;99545.63;5131263;27;20023;-45
2022/08/08 01:31:25;;;;;;;9.10;8.13;;;;;;;24.87;57.92;99540.69;5131192;27;20411;-45
2022/08/08 01:34:15;;;;;;;9.88;8.30;;;;;;;25.17;56.94;99546.59;5125104;28;20031;-44
2022/08/08 01:36:59;;;;;;;10.35;8.18;;;;;;;25.17;56.94;99541.16;5131083;28;20015;-44
2022/08/08 01:39:27;;;;;;;10.88;8.00;;;;;;;24.81;58.06;99541.06;5131037;28;20019;-45
2022/08/08 01:42:01;;;;;;;8.77;7.85;;;;;;;24.87;58.05;99537.94;5131069;28;20276;-44
2022/08/08 01:44:39;;;;;;;9.30;7.82;;;;;;;24.92;57.96;99540.56;5132335;27;20019;-46
2022/08/08 01:47:35;;;;;;;9.23;7.80;;;;;;;25.36;56.15;99547.28;5135523;27;20015;-46
2022/08/08 01:50:16;;;;;;;10.00;7.97;;;;;;;25.05;57.53;99549.00;5135250;27;20023;-43
2022/08/08 01:52:56;;;;;;;9.00;7.78;;;;;;;24.80;58.20;99542.19;5135192;27;20076;-44
2022/08/08 01:55:46;;;;;;;8.55;7.65;;;;;;;25.07;57.46;99549.50;5135438;27;20023;-43
2022/08/08 01:58:27;;;;;;;9.38;7.78;;;;;;;25.46;56.10;99551.69;5134856;27;20069;-44
2022/08/08 02:01:20;;;;;;;9.95;7.70;;;;;;;25.14;57.30;99561.59;5135248;27;20019;-44
2022/08/08 02:03:54;;;;;;;10.23;7.55;;;;;;;24.82;58.05;99557.09;5134845;27;20054;-44
2022/08/08 02:06:25;;;;;;;9.15;7.75;;;;;;;24.89;58.01;99554.78;5135071;27;20023;-44
2022/08/08 02:09:00;;;;;;;10.27;7.40;;;;;;;24.91;57.09;99554.47;5134976;27;20050;-43
2022/08/08 02:11:48;;;;;;;8.43;7.50;;;;;;;25.21;56.52;99566.66;5134856;27;20038;-45
2022/08/08 02:14:19;;;;;;;10.90;7.68;;;;;;;24.60;58.56;99563.25;5134585;27;20106;-43
2022/08/08 02:16:51;;;;;;;9.23;7.97;;;;;;;24.65;58.59;99565.06;5134827;27;20339;-43
2022/08/08 02:19:24;;;;;;;8.07;7.20;;;;;;;24.77;58.09;99549.06;5134657;27;20418;-43
2022/08/08 02:25:17;;;;;;;11.25;7.90;;;;;;;24.86;57.49;99546.41;5134716;27;20223;-46
2022/08/08 02:28:08;;;;;;;8.68;7.60;;;;;;;24.67;58.13;99550.03;5107642;27;20055;-44
2022/08/08 02:30:51;;;;;;;8.45;7.63;;;;;;;24.67;58.00;99543.78;5134600;27;20015;-45
2022/08/08 02:33:43;;;;;;;9.35;7.50;;;;;;;25.08;56.64;99549.22;5134307;27;20493;-38
2022/08/08 02:36:32;;;;;;;9.63;7.90;;;;;;;25.06;56.66;99542.47;5109884;27;20035;-38
2022/08/08 02:39:03;;;;;;;9.70;7.47;;;;;;;24.47;58.51;99550.41;5134454;27;20033;-38
2022/08/08 02:41:57;;;;;;;8.10;7.30;;;;;;;24.65;58.14;99544.09;5134701;27;20023;-38
2022/08/08 02:45:02;;;;;;;7.75;6.95;;;;;;;24.92;57.18;99540.56;5134154;27;20023;-38
2022/08/08 02:47:55;;;;;;;8.63;7.43;;;;;;;25.02;56.23;99545.00;5134018;27;20432;-38
2022/08/08 02:50:54;;;;;;;9.00;7.32;;;;;;;24.52;57.82;99547.59;5133953;27;20111;-38
2022/08/08 02:53:26;;;;;;;8.38;7.00;;;;;;;24.54;57.64;99551.66;5115632;27;20493;-38
2022/08/08 02:56:32;;;;;;;10.13;6.97;;;;;;;24.94;56.68;99553.84;5132869;27;20027;-38
2022/08/08 02:59:00;;;;;;;8.45;7.32;;;;;;;25.04;55.94;99552.88;5083111;28;20488;-38
2022/08/08 03:01:50;;;;;;;8.85;7.18;;;;;;;24.74;56.51;99553.16;5127498;27;20035;-38
2022/08/08 03:04:37;;;;;;;8.82;6.60;;;;;;;24.51;57.31;99560.41;5133840;27;20037;-38
2022/08/08 03:07:40;;;;;;;11.85;8.90;;;;;;;24.85;56.27;99551.06;5133831;27;20019;-37
2022/08/08 03:10:38;;;;;;;9.65;8.45;;;;;;;25.04;55.94;99558.31;5134159;27;20399;-38
2022/08/08 03:13:23;;;;;;;21.05;17.20;;;;;;;24.93;56.02;99553.06;5133853;27;20027;-38
2022/08/08 03:15:57;;;;;;;14.25;8.57;;;;;;;24.68;56.44;99561.75;5133294;27;20027;-37
2022/08/08 03:18:32;;;;;;;10.48;7.32;;;;;;;24.55;56.94;99555.97;5133216;27;20028;-39
2022/08/08 03:20:57;;;;;;;10.57;7.50;;;;;;;24.73;56.44;99559.72;5133863;27;20022;-38
2022/08/08 03:23:23;;;;;;;8.63;7.10;;;;;;;24.61;56.55;99561.34;5133758;27;20107;-38
2022/08/08 03:25:49;;;;;;;9.68;7.47;;;;;;;24.54;56.97;99573.41;5133410;27;20035;-37
2022/08/08 03:28:27;;;;;;;10.02;7.80;;;;;;;24.35;57.54;99572.63;5133262;27;20084;-38
2022/08/08 03:30:52;;;;;;;10.00;7.45;;;;;;;24.49;57.31;99578.91;5133375;27;20098;-37
2022/08/08 03:33:18;;;;;;;16.40;12.55;;;;;;;24.77;56.25;99578.97;5133122;27;20434;-38
2022/08/08 03:35:49;;;;;;;11.52;9.80;;;;;;;25.02;55.36;99572.22;5133483;27;20023;-37
2022/08/08 03:38:15;;;;;;;11.18;8.73;;;;;;;24.65;56.40;99582.19;5133052;27;20026;-38
2022/08/08 03:40:48;;;;;;;18.58;15.90;;;;;;;24.62;56.58;99584.69;5133064;27;20110;-37
2022/08/08 03:43:13;;;;;;;10.10;7.82;;;;;;;24.73;56.42;99591.56;5133172;27;20023;-37
2022/08/08 03:45:40;;;;;;;8.10;7.00;;;;;;;24.91;55.45;99592.59;5133003;27;20045;-36
2022/08/08 03:48:08;;;;;;;12.48;8.32;;;;;;;25.34;54.26;99592.25;5133124;27;20033;-38
2022/08/08 03:50:45;;;;;;;10.48;8.20;;;;;;;24.76;56.04;99596.41;5132644;27;20042;-38
2022/08/08 03:53:14;;;;;;;9.07;7.45;;;;;;;24.70;56.45;99601.13;5132964;27;20367;-38
2022/08/08 03:55:41;;;;;;;11.70;8.70;;;;;;;24.68;56.46;99589.75;5132884;27;20022;-38
2022/08/08 03:58:08;;;;;;;12.73;7.72;;;;;;;24.85;55.88;99605.47;5132445;27;20411;-37
2022/08/08 04:00:34;;;;;;;16.60;9.93;;;;;;;25.50;53.86;99604.44;5132595;27;20019;-38
2022/08/08 04:03:03;;;;;;;16.92;10.05;;;;;;;25.11;55.12;99605.78;5132991;27;20023;-36
2022/08/08 04:05:35;;;;;;;13.75;10.00;;;;;;;25.00;55.61;99601.66;5132610;27;20019;-36
2022/08/08 04:08:02;;;;;;;12.63;8.52;;;;;;;25.46;54.22;99599.91;5132190;27;20015;-36
2022/08/08 04:10:29;;;;;;;11.25;8.55;;;;;;;25.73;53.50;99604.47;5132584;27;20027;-38
2022/08/08 04:12:55;;;;;;;11.95;7.50;;;;;;;26.32;51.65;99596.25;5132141;27;20058;-37
2022/08/08 04:15:21;;;;;;;14.70;7.60;;;;;;;26.08;52.23;99611.03;5132781;27;20084;-37
2022/08/08 04:17:47;;;;;;;12.65;7.25;;;;;;;26.25;52.00;99614.97;5132248;27;20118;-38
2022/08/08 04:20:13;;;;;;;16.77;10.07;;;;;;;26.71;50.75;99609.19;5132095;27;20524;-38
2022/08/08 04:22:38;;;;;;;16.05;9.50;;;;;;;27.05;49.89;99610.41;5131870;27;20338;-37
2022/08/08 04:25:06;;;;;;;11.23;7.35;;;;;;;27.30;49.08;99614.38;5131716;27;20075;-37
2022/08/08 04:27:32;;;;;;;10.05;6.60;;;;;;;27.30;48.56;99606.19;5132096;27;20035;-37
2022/08/08 04:29:58;;;;;;;10.38;6.80;;;;;;;27.60;47.91;99622.75;5132349;27;20035;-37
2022/08/08 04:32:23;;;;;;;13.15;6.60;;;;;;;27.93;47.32;99616.88;5132384;27;20026;-37
2022/08/08 04:34:49;;;;;;;9.07;6.57;;;;;;;28.52;45.81;99627.25;5131987;27;20027;-38
2022/08/08 04:37:14;;;;;;;7.65;6.47;;;;;;;28.34;45.96;99626.44;5131662;27;20132;-37
2022/08/08 04:39:40;;;;;;;8.85;6.43;;;;;;;28.34;46.10;99625.66;5131840;27;20110;-38
2022/08/08 04:42:06;;;;;;;8.77;7.88;;;;;;;28.62;45.28;99617.88;5131778;27;20384;-37
2022/08/08 04:44:31;;;;;;;17.00;13.60;;;;;;;29.20;44.09;99641.00;5131868;27;20443;-37
2022/08/08 04:46:57;;;;;;;7.57;6.63;;;;;;;28.84;44.78;99642.28;5131988;27;20023;-37
2022/08/08 04:49:22;;;;;;;9.07;6.30;;;;;;;28.88;44.77;99638.88;5131822;27;20114;-37
2022/08/08 04:51:48;;;;;;;9.88;6.28;;;;;;;29.10;43.83;99637.81;5131594;27;20023;-38
2022/08/08 04:54:13;;;;;;;10.35;6.18;;;;;;;30.13;42.34;99635.50;5131648;27;20542;-37
2022/08/08 04:56:39;;;;;;;11.82;6.75;;;;;;;29.84;42.44;99636.41;5131430;27;20448;-38
2022/08/08 04:59:04;;;;;;;10.00;6.97;;;;;;;29.63;42.68;99641.88;5131289;27;20403;-37
2022/08/08 05:01:30;;;;;;;13.25;6.38;;;;;;;29.73;42.65;99649.72;5131475;27;20107;-38
2022/08/08 05:03:55;;;;;;;8.38;6.18;;;;;;;30.04;41.82;99647.69;5131492;27;20095;-38
2022/08/08 05:06:21;;;;;;;8.63;5.82;;;;;;;29.65;42.58;99650.56;5131291;27;20019;-37
2022/08/08 05:08:46;;;;;;;7.43;5.93;;;;;;;29.69;42.62;99654.22;5131538;27;20497;-38
2022/08/08 05:11:12;;;;;;;7.65;5.50;;;;;;;30.11;41.45;99646.00;5131731;27;20079;-37
2022/08/08 05:13:42;;;;;;;11.07;6.20;;;;;;;30.83;40.44;99643.03;5131451;27;20080;-38
2022/08/08 05:16:08;;;;;;;6.70;5.78;;;;;;;30.58;40.36;99653.16;5131257;27;20128;-37
2022/08/08 05:18:35;;;;;;;7.22;5.55;;;;;;;30.25;41.28;99644.91;5131058;27;20598;-38
2022/08/08 05:21:01;;;;;;;8.88;5.65;;;;;;;30.25;41.05;99648.44;5131069;27;20467;-36
2022/08/08 05:23:27;;;;;;;7.40;5.75;;;;;;;30.79;40.42;99651.13;5131669;27;20047;-37
2022/08/08 05:25:53;;;;;;;7.32;5.75;;;;;;;31.38;38.95;99646.38;5131482;27;20486;-43
2022/08/08 05:28:18;;;;;;;8.52;5.50;;;;;;;31.05;40.01;99646.47;5130820;27;20056;-43
2022/08/08 05:30:44;;;;;;;8.88;5.78;;;;;;;31.18;39.94;99650.84;5131507;27;20023;-44
2022/08/08 05:33:09;;;;;;;7.70;5.80;;;;;;;31.75;38.29;99649.06;5131074;27;20023;-43
2022/08/08 05:35:37;;;;;;;7.38;5.47;;;;;;;31.82;38.12;99648.47;5130760;28;20087;-42
2022/08/08 05:38:05;;;;;;;9.98;5.65;;;;;;;31.84;37.92;99648.94;5130683;28;20058;-43
2022/08/08 05:40:32;;;;;;;5.82;5.22;;;;;;;31.95;37.80;99652.78;5131117;28;20095;-44
2022/08/08 05:43:02;;;;;;;7.03;5.30;;;;;;;32.22;37.43;99653.97;5130900;28;20027;-44
2022/08/08 05:45:30;;;;;;;7.13;5.50;;;;;;;32.65;36.69;99662.56;5130866;28;20511;-43
2022/08/08 05:47:55;;;;;;;6.00;5.25;;;;;;;32.49;36.68;99657.81;5130263;28;20042;-45
2022/08/08 05:50:22;;;;;;;9.07;5.20;;;;;;;32.53;36.75;99655.16;5130138;28;20347;-44
2022/08/08 05:52:48;;;;;;;7.05;5.20;;;;;;;32.59;36.32;99655.72;5130706;28;20052;-43
2022/08/08 05:55:14;;;;;;;7.53;5.30;;;;;;;33.19;35.34;99663.94;5130891;28;20566;-43
2022/08/08 05:57:41;;;;;;;6.22;5.25;;;;;;;32.84;35.64;99672.88;5130474;28;20027;-46
2022/08/08 06:00:09;;;;;;;7.75;5.15;;;;;;;32.72;36.17;99671.03;5130293;28;20366;-45
2022/08/08 06:05:20;;;;;;;8.43;5.28;;;;;;;33.76;34.90;99679.03;5130971;28;20041;-46
2022/08/08 06:07:48;;;;;;;6.68;5.20;;;;;;;33.17;35.09;99672.56;5130473;28;20607;-46
2022/08/08 06:10:14;;;;;;;7.28;4.95;;;;;;;33.79;34.20;99672.00;5129811;28;20019;-45
2022/08/08 06:12:43;;;;;;;5.30;4.80;;;;;;;33.21;34.85;99675.41;5130274;28;20027;-47
2022/08/08 06:15:09;;;;;;;;;;;;;;;33.45;34.63;99680.69;5134119;27;20118;-46
2022/08/08 06:17:38;;;;;;;8.68;5.38;;;;;;;33.11;35.23;99674.78;5151113;27;20426;-45
2022/08/08 06:20:04;;;;;;;;;;;;;;;33.21;34.86;99675.41;5151439;27;20113;-43
2022/08/08 06:22:30;;;;;;;9.05;5.10;;;;;;;33.55;34.45;99682.09;5151719;27;20271;-45
2022/08/08 06:24:55;;;;;;;9.52;4.93;;;;;;;32.99;34.80;99680.34;5151257;27;20031;-46
2022/08/08 06:27:38;;;;;;;8.55;5.25;;;;;;;33.25;34.52;99681.81;5150761;27;20126;-46
2022/08/08 06:30:05;;;;;;;9.05;4.80;;;;;;;34.19;33.11;99685.44;5151030;27;20027;-42
2022/08/08 06:32:36;;;;;;;8.45;5.20;;;;;;;34.71;32.43;99676.94;5154967;27;20490;-49
2022/08/08 06:35:04;;;;;;;8.00;5.50;;;;;;;34.25;32.41;99678.50;5154697;27;20023;-45
2022/08/08 06:37:31;;;;;;;;;;;;;;;35.17;31.33;99675.00;5154964;27;20034;-47
2022/08/08 06:40:03;;;;;;;6.88;5.15;;;;;;;35.24;31.85;99683.41;5152970;27;19920;-44
2022/08/08 06:42:32;;;;;;;8.18;5.20;;;;;;;35.47;31.63;99679.78;5152330;27;20030;-44
2022/08/08 06:45:00;;;;;;;8.35;5.65;;;;;;;35.11;31.70;99675.63;5152959;27;20031;-45
2022/08/08 06:47:26;;;;;;;8.43;5.45;;;;;;;35.47;30.76;99679.78;5153622;27;20022;-46
2022/08/08 06:49:51;;;;;;;10.27;5.68;;;;;;;34.89;31.33;99674.50;5153901;27;20018;-45
2022/08/08 06:52:17;;;;;;;8.27;4.95;;;;;;;35.45;30.34;99682.09;5153892;27;20027;-46
2022/08/08 06:54:43;;;;;;;8.15;5.10;;;;;;;35.51;30.67;99677.03;5154442;27;20022;-46
2022/08/08 06:57:09;;;;;;;10.88;5.20;;;;;;;36.31;29.50;99676.91;5154710;27;20401;-44
2022/08/08 06:59:36;;;;;;;6.03;4.50;;;;;;;35.58;30.49;99686.25;5154277;27;20029;-46
2022/08/08 07:02:03;;;;;;;6.13;4.47;;;;;;;36.05;29.15;99686.88;5154240;27;20027;-45
2022/08/08 07:04:53;;;;;;;6.60;4.22;;;;;;;36.00;29.33;99688.03;5154335;27;20029;-46
2022/08/08 07:07:21;;;;;;;;;;;;;;;36.62;28.75;99689.50;5155141;27;20022;-44
2022/08/08 07:09:58;;;;;;;6.10;4.30;;;;;;;37.37;27.91;99684.59;5154523;27;19911;-44
2022/08/08 07:12:43;;;;;;;5.85;4.63;;;;;;;37.20;27.80;99685.28;5155108;27;20026;-45
2022/08/08 07:15:11;;;;;;;6.38;4.43;;;;;;;37.46;27.52;99684.25;5154450;27;20026;-44
2022/08/08 07:17:48;;;;;;;7.47;4.72;;;;;;;36.58;28.48;99689.47;5154557;27;20053;-45
2022/08/08 07:20:19;;;;;;;6.88;4.43;;;;;;;37.61;27.00;99681.59;5154317;27;20026;-48
2022/08/08 07:23:02;;;;;;;9.27;4.30;;;;;;;37.41;26.91;99690.16;5154576;27;20118;-45
2022/08/08 07:25:33;;;;;;;7.80;4.38;;;;;;;37.81;26.74;99688.44;5153871;27;20062;-48
2022/08/08 07:28:28;;;;;;;7.82;4.55;;;;;;;38.12;26.43;99681.44;5153714;27;20058;-45
2022/08/08 07:30:53;;;;;;;6.30;5.00;;;;;;;38.46;26.02;99680.31;5141021;27;20039;-44
2022/08/08 07:33:22;;;;;;;7.18;5.00;;;;;;;37.53;27.02;99689.06;5154531;27;20083;-44
2022/08/08 07:35:48;;;;;;;10.15;5.40;;;;;;;37.69;27.06;99686.00;5154450;27;20026;-46
2022/08/08 07:38:16;;;;;;;6.90;5.13;;;;;;;38.00;26.69;99692.88;5154079;27;20053;-44
2022/08/08 07:40:42;;;;;;;;;;;;;;;38.67;25.64;99680.41;5154663;27;20022;-44
2022/08/08 07:43:10;;;;;;;5.65;4.93;;;;;;;38.07;26.11;99681.81;5135276;27;20006;-46
2022/08/08 07:45:36;;;;;;;7.22;4.43;;;;;;;38.34;25.68;99681.50;5153987;27;20035;-46
2022/08/08 07:48:02;;;;;;;6.45;4.40;;;;;;;38.61;24.57;99681.16;5154177;27;20080;-42
2022/08/08 07:50:28;;;;;;;10.40;4.65;;;;;;;38.63;25.61;99684.34;5153647;27;20022;-45
2022/08/08 07:52:59;;;;;;;6.57;4.13;;;;;;;38.67;24.57;99671.25;5153609;27;20027;-46
2022/08/08 07:55:27;;;;;;;6.43;3.75;;;;;;;38.61;23.65;99672.84;5153795;27;20061;-45
2022/08/08 07:58:13;;;;;;;6.07;3.85;;;;;;;38.69;23.76;99675.22;5153464;27;20129;-43
2022/08/08 08:00:43;;;;;;;6.30;3.53;;;;;;;39.57;22.75;99674.78;5153418;27;20038;-45
2022/08/08 08:03:17;;;;;;;6.28;3.55;;;;;;;38.99;22.63;99679.63;5153126;27;20033;-44
2022/08/08 08:05:47;;;;;;;7.85;3.58;;;;;;;38.67;22.80;99674.84;5153153;27;20022;-42
2022/08/08 08:08:17;;;;;;;5.93;3.58;;;;;;;38.58;22.81;99668.09;5152920;27;20033;-45
2022/08/08 08:10:44;;;;;;;4.03;3.50;;;;;;;38.97;22.41;99662.50;5153280;27;20083;-44
2022/08/08 08:13:24;;;;;;;6.60;3.60;;;;;;;39.24;22.41;99662.91;5153428;27;20050;-44
2022/08/08 08:15:59;;;;;;;5.00;3.63;;;;;;;39.20;22.34;99662.09;5153165;27;20034;-42
2022/08/08 08:18:30;;;;;;;5.03;3.17;;;;;;;39.22;21.67;99656.16;5152367;27;20037;-45
2022/08/08 08:20:55;;;;;;;6.55;3.30;;;;;;;39.82;21.03;99654.41;5152948;27;20031;-45
2022/08/08 08:23:21;;;;;;;5.05;3.25;;;;;;;39.64;21.16;99646.09;5152854;27;20026;-44
2022/08/08 08:25:46;;;;;;;4.47;3.00;;;;;;;39.39;21.07;99646.97;5152569;27;20055;-45
2022/08/08 08:28:12;;;;;;;4.20;3.03;;;;;;;39.46;21.29;99646.97;5152547;27;20027;-46
2022/08/08 08:30:38;;;;;;;6.65;3.10;;;;;;;38.80;22.00;99657.75;5152722;27;20026;-44
2022/08/08 08:33:03;;;;;;;6.25;2.78;;;;;;;38.79;20.27;99651.41;5152735;27;20022;-44
2022/08/08 08:35:29;;;;;;;5.95;2.75;;;;;;;38.33;21.00;99655.69;5152750;27;20033;-43
2022/08/08 08:37:54;;;;;;;5.28;2.90;;;;;;;37.76;21.02;99658.28;5152244;27;20027;-45
2022/08/08 08:40:20;;;;;;;5.40;2.80;;;;;;;37.79;21.61;99645.59;5152341;27;20023;-45
2022/08/08 08:42:48;;;;;;;4.88;3.00;;;;;;;38.65;20.86;99645.81;5152348;27;20074;-46
2022/08/08 08:45:14;;;;;;;3.53;2.78;;;;;;;38.82;20.62;99633.94;5152826;27;20105;-45
2022/08/08 08:47:43;;;;;;;4.35;2.70;;;;;;;38.94;20.26;99632.72;5152420;27;20038;-45
2022/08/08 08:50:09;;;;;;;7.55;3.50;;;;;;;38.17;20.75;99637.81;5151685;27;20027;-42
2022/08/08 08:52:41;;;;;;;7.53;3.53;;;;;;;38.50;20.64;99643.03;5152487;27;20018;-44
2022/08/08 08:55:11;;;;;;;3.65;2.90;;;;;;;38.23;21.36;99642.59;5151251;27;20027;-44
2022/08/08 08:57:37;;;;;;;5.22;3.10;;;;;;;38.30;21.09;99639.03;5152311;27;20094;-49
2022/08/08 09:00:04;;;;;;;6.90;2.90;;;;;;;38.34;21.33;99637.81;5152224;27;20023;-46
2022/08/08 09:02:31;;;;;;;5.57;3.25;;;;;;;39.17;20.48;99623.19;5152148;27;20031;-45
2022/08/08 09:05:02;;;;;;;5.63;2.77;;;;;;;39.11;20.65;99611.69;5151847;27;20041;-46
2022/08/08 09:07:32;;;;;;;4.30;2.72;;;;;;;38.72;19.79;99624.38;5152000;27;20078;-46
2022/08/08 09:09:59;;;;;;;4.28;2.75;;;;;;;37.84;20.78;99629.34;5151818;27;20027;-45
2022/08/08 09:12:26;;;;;;;5.05;2.88;;;;;;;37.01;21.67;99619.75;5152057;27;20023;-45
2022/08/08 09:14:55;;;;;;;5.25;2.80;;;;;;;36.91;21.83;99615.72;5151863;27;20087;-44
2022/08/08 09:17:24;;;;;;;6.10;2.60;;;;;;;36.64;22.44;99604.00;5152274;27;20455;-44
2022/08/08 09:19:58;;;;;;;4.18;2.72;;;;;;;37.22;21.79;99621.09;5152102;27;20030;-46
2022/08/08 09:22:24;;;;;;;6.05;2.60;;;;;;;37.91;21.10;99614.72;5152171;27;20513;-44
2022/08/08 09:24:51;;;;;;;6.50;2.63;;;;;;;38.08;21.08;99607.63;5152047;27;20030;-47
2022/08/08 09:27:18;;;;;;;8.35;2.60;;;;;;;37.87;21.13;99611.09;5151543;27;20050;-45
2022/08/08 09:30:07;;;;;;;4.10;2.60;;;;;;;38.07;20.76;99606.03;5152379;27;20107;-46
2022/08/08 09:32:42;;;;;;;5.20;2.60;;;;;;;38.98;20.79;99602.13;5151597;27;20046;-44
2022/08/08 09:35:19;;;;;;;5.78;2.50;;;;;;;38.57;20.14;99588.66;5151612;27;20030;-44
2022/08/08 09:37:47;;;;;;;5.70;2.67;;;;;;;38.31;20.56;99602.53;5151865;27;20035;-45
2022/08/08 09:40:21;;;;;;;5.47;2.45;;;;;;;37.70;20.68;99610.69;5152237;27;20037;-45
2022/08/08 09:42:50;;;;;;;2.90;2.60;;;;;;;36.95;21.67;99599.13;5151702;27;20031;-45
2022/08/08 09:45:19;;;;;;;5.18;2.60;;;;;;;36.80;21.61;99598.22;5151822;27;20126;-47
2022/08/08 09:47:46;;;;;;;6.82;2.80;;;;;;;36.60;21.98;99605.97;5151771;27;20026;-45
2022/08/08 09:50:16;;;;;;;4.70;2.90;;;;;;;36.45;21.75;99584.84;5151144;27;20030;-46
2022/08/08 09:52:50;;;;;;;4.07;3.00;;;;;;;37.32;21.46;99582.34;5151907;27;20079;-45
2022/08/08 09:55:17;;;;;;;3.15;2.70;;;;;;;37.58;21.14;99594.31;5151442;27;20026;-47
2022/08/08 09:57:49;;;;;;;5.25;2.75;;;;;;;36.68;21.98;99579.91;5151698;27;20130;-46
2022/08/08 10:00:21;;;;;;;2.83;2.60;;;;;;;36.84;21.79;99574.09;5151115;27;20027;-45
2022/08/08 10:02:50;;;;;;;5.60;2.90;;;;;;;37.08;21.91;99582.97;5151477;27;20506;-47
2022/08/08 10:05:20;;;;;;;3.65;2.75;;;;;;;36.73;21.48;99576.00;5152058;27;20023;-45
2022/08/08 10:07:52;;;;;;;4.57;2.70;;;;;;;36.86;22.06;99574.53;5155740;27;20102;-43
2022/08/08 10:10:40;;;;;;;4.50;2.70;;;;;;;37.56;21.34;99571.72;5154866;27;20026;-47
2022/08/08 10:13:18;;;;;;;5.63;2.60;;;;;;;37.70;20.24;99571.00;5155360;27;20022;-44
2022/08/08 10:15:46;;;;;;;4.95;2.78;;;;;;;37.95;20.34;99573.88;5155241;27;20125;-44
2022/08/08 10:18:22;;;;;;;5.80;2.53;;;;;;;36.43;21.45;99567.81;5154867;27;20022;-44
2022/08/08 10:20:49;;;;;;;3.70;2.42;;;;;;;35.60;22.25;99576.03;5154495;27;20175;-44
2022/08/08 10:23:17;;;;;;;3.25;2.30;;;;;;;36.16;21.38;99556.88;5155356;27;20026;-45
2022/08/08 10:25:44;;;;;;;4.78;2.70;;;;;;;36.36;20.98;99551.91;5155048;27;20043;-45
2022/08/08 10:28:20;;;;;;;6.18;2.30;;;;;;;36.37;21.44;99550.75;5154878;27;20482;-44
2022/08/08 10:30:57;;;;;;;3.95;2.50;;;;;;;36.44;21.29;99559.09;5155250;27;20030;-45
2022/08/08 10:33:33;;;;;;;4.40;2.45;;;;;;;36.88;20.81;99547.22;5155424;27;20034;-43
2022/08/08 10:36:02;;;;;;;4.97;2.50;;;;;;;36.96;20.78;99548.81;5155058;27;20019;-43
2022/08/08 10:38:29;;;;;;;4.05;2.42;;;;;;;36.07;21.35;99537.00;5154847;27;20038;-44
2022/08/08 10:41:01;;;;;;;5.38;2.35;;;;;;;35.88;21.49;99541.56;5155371;27;20143;-44
2022/08/08 10:43:39;;;;;;;5.07;2.50;;;;;;;36.27;21.07;99523.75;5155442;27;20087;-44
2022/08/08 10:46:24;;;;;;;5.13;2.85;;;;;;;36.92;20.60;99523.06;5154738;27;20030;-45
2022/08/08 10:48:54;;;;;;;7.07;2.80;;;;;;;36.27;21.25;99526.50;5155112;27;20105;-46
2022/08/08 10:51:25;;;;;;;5.60;2.40;;;;;;;36.71;20.09;99525.69;5155150;27;20461;-45
2022/08/08 10:53:54;;;;;;;4.03;2.30;;;;;;;36.88;20.43;99516.72;5154844;27;20030;-44
2022/08/08 10:56:20;;;;;;;4.40;2.50;;;;;;;37.63;19.44;99521.84;5154698;27;20031;-49
2022/08/08 10:58:45;;;;;;;7.05;2.50;;;;;;;36.30;20.79;99509.94;5154251;27;20422;-43
2022/08/08 11:01:11;;;;;;;6.38;2.35;;;;;;;35.94;21.32;99508.78;5154651;27;20015;-47
2022/08/08 11:03:44;;;;;;;3.15;2.30;;;;;;;36.22;21.51;99518.59;5154747;27;20418;-45
2022/08/08 11:06:10;;;;;;;6.10;2.58;;;;;;;37.36;20.43;99507.47;5154602;27;20491;-44
2022/08/08 11:08:37;;;;;;;7.35;2.35;;;;;;;37.16;20.01;99513.28;5154231;27;20019;-46
2022/08/08 11:11:08;;;;;;;5.22;2.42;;;;;;;37.34;19.22;99513.38;5154378;27;20019;-46
2022/08/08 11:13:44;;;;;;;5.20;2.30;;;;;;;37.65;19.66;99505.59;5154392;27;20370;-44
2022/08/08 11:16:21;;;;;;;6.45;2.47;;;;;;;37.16;19.33;99504.19;5154462;27;20485;-48
2022/08/08 11:18:48;;;;;;;3.55;2.05;;;;;;;37.55;19.17;99496.00;5153568;27;20506;-46
2022/08/08 11:21:14;;;;;;;8.40;2.15;;;;;;;37.44;19.75;99497.19;5154083;27;20022;-43
2022/08/08 11:23:41;;;;;;;4.72;2.20;;;;;;;36.75;19.51;99493.28;5154714;27;20053;-45
2022/08/08 11:26:11;;;;;;;4.50;2.20;;;;;;;36.75;19.36;99484.97;5153964;27;20046;-48
2022/08/08 11:28:38;;;;;;;3.55;2.10;;;;;;;36.16;19.92;99487.66;5154156;27;20030;-44
2022/08/08 11:31:07;;;;;;;5.55;2.20;;;;;;;36.04;20.88;99487.91;5153840;27;20462;-44
2022/08/08 11:33:35;;;;;;;5.05;2.10;;;;;;;36.18;20.64;99496.41;5153752;27;20355;-44
2022/08/08 11:36:00;;;;;;;3.97;2.13;;;;;;;36.43;19.94;99477.19;5153831;27;20023;-45
2022/08/08 11:38:26;;;;;;;4.47;2.25;;;;;;;36.49;20.18;99480.41;5153596;27;20653;-44
2022/08/08 11:40:53;;;;;;;4.75;1.92;;;;;;;37.07;19.54;99478.75;5153666;27;20033;-44
2022/08/08 11:43:21;;;;;;;6.03;2.20;;;;;;;36.79;19.43;99478.25;5153815;27;20505;-45
2022/08/08 11:45:49;;;;;;;6.68;2.20;;;;;;;36.05;20.15;99493.09;5153703;27;20034;-45
2022/08/08 11:48:15;;;;;;;10.38;2.42;;;;;;;35.79;20.17;99467.13;5135033;27;20022;-44
2022/08/08 11:50:43;;;;;;;6.68;2.30;;;;;;;36.31;19.77;99474.72;5153364;27;20026;-43
2022/08/08 11:53:09;;;;;;;6.72;2.05;;;;;;;36.24;19.50;99469.16;5153366;27;20032;-43
2022/08/08 11:55:46;;;;;;;4.55;2.05;;;;;;;35.78;19.76;99476.63;5153678;27;20026;-44
2022/08/08 11:58:14;;;;;;;4.47;1.90;;;;;;;36.41;19.66;99471.25;5153332;27;20023;-43
2022/08/08 12:00:50;;;;;;;4.82;2.15;;;;;;;36.16;19.71;99466.28;5153397;27;20031;-45
2022/08/08 12:03:19;;;;;;;5.63;2.35;;;;;;;35.89;20.21;99464.84;5153027;27;20027;-44
2022/08/08 12:05:45;;;;;;;;;;;;;;;35.44;19.45;99471.09;5153945;27;20058;-45
2022/08/08 12:08:15;;;;;;;7.60;2.65;;;;;;;35.38;20.39;99483.69;5153535;27;19929;-45